sensor_id;sensor_type;location;lat;lon;timestamp;temperature;humidity
31575;DHT22;18182;1.328;103.810;2023-06-22T00:00:49;30.30;99.90
31575;DHT22;18182;1.328;103.810;2023-06-22T00:03:15;30.30;99.90
31575;DHT22;18182;1.328;103.810;2023-06-22T00:05:41;30.30;99.90
31575;DHT22;18182;1.328;103.810;2023-06-22T00:08:07;30.30;99.90
31575;DHT22;18182;1.328;103.810;2023-06-22T00:10:33;30.30;99.90
31575;DHT22;18182;1.328;103.810;2023-06-22T00:13:00;30.20;99.90
31575;DHT22;18182;1.328;103.810;2023-06-22T00:15:27;30.20;99.90
31575;DHT22;18182;1.328;103.810;2023-06-22T00:17:53;30.20;99.90
31575;DHT22;18182;1.328;103.810;2023-06-22T00:20:19;30.20;99.90
31575;DHT22;18182;1.328;103.810;2023-06-22T00:22:45;30.20;99.90
31575;DHT22;18182;1.328;103.810;2023-06-22T00:25:11;30.20;99.90
31575;DHT22;18182;1.328;103.810;2023-06-22T00:27:38;30.20;99.90
31575;DHT22;18182;1.328;103.810;2023-06-22T00:30:04;30.30;99.90
31575;DHT22;18182;1.328;103.810;2023-06-22T00:32:30;30.30;99.90
31575;DHT22;18182;1.328;103.810;2023-06-22T00:34:56;30.30;99.90
31575;DHT22;18182;1.328;103.810;2023-06-22T00:37:22;30.30;99.90
31575;DHT22;18182;1.328;103.810;2023-06-22T00:39:51;30.40;99.90
31575;DHT22;18182;1.328;103.810;2023-06-22T00:42:17;30.50;99.90
31575;DHT22;18182;1.328;103.810;2023-06-22T00:44:43;30.50;99.90
31575;DHT22;18182;1.328;103.810;2023-06-22T00:47:14;30.50;99.90
31575;DHT22;18182;1.328;103.810;2023-06-22T00:49:41;30.50;99.90
31575;DHT22;18182;1.328;103.810;2023-06-22T00:52:08;30.60;99.90
31575;DHT22;18182;1.328;103.810;2023-06-22T00:54:42;30.60;99.90
31575;DHT22;18182;1.328;103.810;2023-06-22T00:57:12;30.60;99.90
31575;DHT22;18182;1.328;103.810;2023-06-22T00:59:43;30.70;99.90
31575;DHT22;18182;1.328;103.810;2023-06-22T01:02:10;30.60;99.90
31575;DHT22;18182;1.328;103.810;2023-06-22T01:04:37;30.60;99.90
31575;DHT22;18182;1.328;103.810;2023-06-22T01:07:08;30.60;99.90
31575;DHT22;18182;1.328;103.810;2023-06-22T01:09:44;30.60;99.90
31575;DHT22;18182;1.328;103.810;2023-06-22T01:12:14;30.80;99.90
31575;DHT22;18182;1.328;103.810;2023-06-22T01:14:43;30.90;99.90
31575;DHT22;18182;1.328;103.810;2023-06-22T01:17:12;30.90;99.90
31575;DHT22;18182;1.328;103.810;2023-06-22T01:19:46;30.80;99.90
31575;DHT22;18182;1.328;103.810;2023-06-22T01:22:15;30.80;99.90
31575;DHT22;18182;1.328;103.810;2023-06-22T01:25:02;30.90;99.90
31575;DHT22;18182;1.328;103.810;2023-06-22T01:27:33;30.80;99.90
31575;DHT22;18182;1.328;103.810;2023-06-22T01:30:03;30.90;99.90
31575;DHT22;18182;1.328;103.810;2023-06-22T01:32:31;30.90;99.90
31575;DHT22;18182;1.328;103.810;2023-06-22T01:35:01;31.00;99.90
31575;DHT22;18182;1.328;103.810;2023-06-22T01:37:28;30.90;99.90
31575;DHT22;18182;1.328;103.810;2023-06-22T01:39:54;30.90;99.90
31575;DHT22;18182;1.328;103.810;2023-06-22T01:42:22;31.00;99.90
31575;DHT22;18182;1.328;103.810;2023-06-22T01:44:49;31.10;99.90
31575;DHT22;18182;1.328;103.810;2023-06-22T01:47:15;31.00;99.90
31575;DHT22;18182;1.328;103.810;2023-06-22T01:49:43;31.00;99.90
31575;DHT22;18182;1.328;103.810;2023-06-22T01:52:09;31.00;99.90
31575;DHT22;18182;1.328;103.810;2023-06-22T01:54:36;31.00;99.90
31575;DHT22;18182;1.328;103.810;2023-06-22T01:57:02;31.10;99.90
31575;DHT22;18182;1.328;103.810;2023-06-22T01:59:31;31.10;99.90
31575;DHT22;18182;1.328;103.810;2023-06-22T02:02:06;31.10;99.90
31575;DHT22;18182;1.328;103.810;2023-06-22T02:04:44;31.10;99.90
31575;DHT22;18182;1.328;103.810;2023-06-22T02:07:13;31.10;99.90
31575;DHT22;18182;1.328;103.810;2023-06-22T02:09:40;31.20;99.90
31575;DHT22;18182;1.328;103.810;2023-06-22T02:12:08;31.30;99.90
31575;DHT22;18182;1.328;103.810;2023-06-22T02:14:36;31.30;99.90
31575;DHT22;18182;1.328;103.810;2023-06-22T02:17:02;31.40;99.90
31575;DHT22;18182;1.328;103.810;2023-06-22T02:19:30;31.40;99.90
31575;DHT22;18182;1.328;103.810;2023-06-22T02:21:58;31.50;99.90
31575;DHT22;18182;1.328;103.810;2023-06-22T02:24:24;31.50;99.90
31575;DHT22;18182;1.328;103.810;2023-06-22T02:26:50;31.50;99.90
31575;DHT22;18182;1.328;103.810;2023-06-22T02:29:17;31.50;99.90
31575;DHT22;18182;1.328;103.810;2023-06-22T02:31:44;31.50;99.90
31575;DHT22;18182;1.328;103.810;2023-06-22T02:34:10;31.50;99.90
31575;DHT22;18182;1.328;103.810;2023-06-22T02:36:44;31.50;99.90
31575;DHT22;18182;1.328;103.810;2023-06-22T02:39:22;31.60;99.90
31575;DHT22;18182;1.328;103.810;2023-06-22T02:41:49;31.70;99.90
31575;DHT22;18182;1.328;103.810;2023-06-22T02:44:15;31.70;99.90
31575;DHT22;18182;1.328;103.810;2023-06-22T02:46:42;31.70;99.90
31575;DHT22;18182;1.328;103.810;2023-06-22T02:49:08;31.70;99.90
31575;DHT22;18182;1.328;103.810;2023-06-22T02:51:34;31.70;99.90
31575;DHT22;18182;1.328;103.810;2023-06-22T02:54:01;31.70;99.90
31575;DHT22;18182;1.328;103.810;2023-06-22T02:56:28;31.70;99.90
31575;DHT22;18182;1.328;103.810;2023-06-22T02:58:56;31.90;99.90
31575;DHT22;18182;1.328;103.810;2023-06-22T03:01:27;31.90;99.90
31575;DHT22;18182;1.328;103.810;2023-06-22T03:03:53;31.80;99.90
31575;DHT22;18182;1.328;103.810;2023-06-22T03:06:20;31.60;99.90
31575;DHT22;18182;1.328;103.810;2023-06-22T03:08:50;31.60;99.90
31575;DHT22;18182;1.328;103.810;2023-06-22T03:11:17;31.50;99.90
31575;DHT22;18182;1.328;103.810;2023-06-22T03:13:43;31.50;99.90
31575;DHT22;18182;1.328;103.810;2023-06-22T03:16:11;31.60;99.90
31575;DHT22;18182;1.328;103.810;2023-06-22T03:18:37;31.70;99.90
31575;DHT22;18182;1.328;103.810;2023-06-22T03:21:03;31.70;99.90
31575;DHT22;18182;1.328;103.810;2023-06-22T03:23:29;31.70;99.90
31575;DHT22;18182;1.328;103.810;2023-06-22T03:25:55;31.70;99.90
31575;DHT22;18182;1.328;103.810;2023-06-22T03:28:21;31.80;99.90
31575;DHT22;18182;1.328;103.810;2023-06-22T03:30:47;31.90;99.90
31575;DHT22;18182;1.328;103.810;2023-06-22T03:33:14;32.00;99.90
31575;DHT22;18182;1.328;103.810;2023-06-22T03:35:40;32.10;99.90
31575;DHT22;18182;1.328;103.810;2023-06-22T03:38:06;32.20;99.90
31575;DHT22;18182;1.328;103.810;2023-06-22T03:40:34;32.20;99.90
31575;DHT22;18182;1.328;103.810;2023-06-22T03:43:00;32.30;99.90
31575;DHT22;18182;1.328;103.810;2023-06-22T03:45:26;32.30;99.90
31575;DHT22;18182;1.328;103.810;2023-06-22T03:47:52;32.30;99.90
31575;DHT22;18182;1.328;103.810;2023-06-22T03:50:18;32.30;99.90
31575;DHT22;18182;1.328;103.810;2023-06-22T03:52:46;32.30;99.90
31575;DHT22;18182;1.328;103.810;2023-06-22T03:55:12;32.40;99.90
31575;DHT22;18182;1.328;103.810;2023-06-22T03:57:38;32.40;99.90
31575;DHT22;18182;1.328;103.810;2023-06-22T04:00:06;32.50;99.90
31575;DHT22;18182;1.328;103.810;2023-06-22T04:02:33;32.60;99.90
31575;DHT22;18182;1.328;103.810;2023-06-22T04:04:59;32.70;99.90
31575;DHT22;18182;1.328;103.810;2023-06-22T04:07:25;32.60;99.90
31575;DHT22;18182;1.328;103.810;2023-06-22T04:09:51;32.50;99.90
31575;DHT22;18182;1.328;103.810;2023-06-22T04:12:18;32.40;99.90
31575;DHT22;18182;1.328;103.810;2023-06-22T04:14:44;32.40;99.90
31575;DHT22;18182;1.328;103.810;2023-06-22T04:17:10;32.40;99.90
31575;DHT22;18182;1.328;103.810;2023-06-22T04:19:40;32.50;99.90
31575;DHT22;18182;1.328;103.810;2023-06-22T04:22:06;32.50;99.90
31575;DHT22;18182;1.328;103.810;2023-06-22T04:24:33;32.50;99.90
31575;DHT22;18182;1.328;103.810;2023-06-22T04:26:59;32.40;99.90
31575;DHT22;18182;1.328;103.810;2023-06-22T04:29:28;32.30;99.90
31575;DHT22;18182;1.328;103.810;2023-06-22T04:31:56;32.30;99.90
31575;DHT22;18182;1.328;103.810;2023-06-22T04:34:24;32.30;99.90
31575;DHT22;18182;1.328;103.810;2023-06-22T04:36:53;32.30;99.90
31575;DHT22;18182;1.328;103.810;2023-06-22T04:39:20;32.30;99.90
31575;DHT22;18182;1.328;103.810;2023-06-22T04:41:46;32.30;99.90
31575;DHT22;18182;1.328;103.810;2023-06-22T04:44:16;32.40;99.90
31575;DHT22;18182;1.328;103.810;2023-06-22T04:46:51;32.50;99.90
31575;DHT22;18182;1.328;103.810;2023-06-22T04:49:23;32.50;99.90
31575;DHT22;18182;1.328;103.810;2023-06-22T04:51:58;32.40;99.90
31575;DHT22;18182;1.328;103.810;2023-06-22T04:54:25;32.30;99.90
31575;DHT22;18182;1.328;103.810;2023-06-22T04:56:51;32.30;99.90
31575;DHT22;18182;1.328;103.810;2023-06-22T04:59:22;32.30;99.90
31575;DHT22;18182;1.328;103.810;2023-06-22T05:01:57;32.30;99.90
31575;DHT22;18182;1.328;103.810;2023-06-22T05:04:26;32.50;99.90
31575;DHT22;18182;1.328;103.810;2023-06-22T05:06:53;32.70;99.90
31575;DHT22;18182;1.328;103.810;2023-06-22T05:09:20;32.90;99.90
31575;DHT22;18182;1.328;103.810;2023-06-22T05:11:46;32.90;99.90
31575;DHT22;18182;1.328;103.810;2023-06-22T05:14:13;32.90;99.90
31575;DHT22;18182;1.328;103.810;2023-06-22T05:16:40;32.70;99.90
31575;DHT22;18182;1.328;103.810;2023-06-22T05:19:06;32.60;99.90
31575;DHT22;18182;1.328;103.810;2023-06-22T05:21:33;32.60;99.90
31575;DHT22;18182;1.328;103.810;2023-06-22T05:23:59;32.60;99.90
31575;DHT22;18182;1.328;103.810;2023-06-22T05:26:27;32.50;99.90
31575;DHT22;18182;1.328;103.810;2023-06-22T05:28:54;32.50;99.90
31575;DHT22;18182;1.328;103.810;2023-06-22T05:31:20;32.50;99.90
31575;DHT22;18182;1.328;103.810;2023-06-22T05:33:47;32.40;99.90
31575;DHT22;18182;1.328;103.810;2023-06-22T05:36:14;32.40;99.90
31575;DHT22;18182;1.328;103.810;2023-06-22T05:38:40;32.30;99.90
31575;DHT22;18182;1.328;103.810;2023-06-22T05:41:07;32.20;99.90
31575;DHT22;18182;1.328;103.810;2023-06-22T05:43:33;32.10;99.90
31575;DHT22;18182;1.328;103.810;2023-06-22T05:46:00;32.10;99.90
31575;DHT22;18182;1.328;103.810;2023-06-22T05:48:27;32.00;99.90
31575;DHT22;18182;1.328;103.810;2023-06-22T05:50:53;31.80;99.90
31575;DHT22;18182;1.328;103.810;2023-06-22T05:53:19;31.60;99.90
31575;DHT22;18182;1.328;103.810;2023-06-22T05:55:46;31.40;99.90
31575;DHT22;18182;1.328;103.810;2023-06-22T05:58:12;31.40;99.90
31575;DHT22;18182;1.328;103.810;2023-06-22T06:00:41;31.40;99.90
31575;DHT22;18182;1.328;103.810;2023-06-22T06:03:08;31.30;99.90
31575;DHT22;18182;1.328;103.810;2023-06-22T06:05:35;31.40;99.90
31575;DHT22;18182;1.328;103.810;2023-06-22T06:08:01;31.40;99.90
31575;DHT22;18182;1.328;103.810;2023-06-22T06:10:28;31.40;99.90
31575;DHT22;18182;1.328;103.810;2023-06-22T06:12:57;31.40;99.90
31575;DHT22;18182;1.328;103.810;2023-06-22T06:15:24;31.50;99.90
31575;DHT22;18182;1.328;103.810;2023-06-22T06:17:50;31.50;99.90
31575;DHT22;18182;1.328;103.810;2023-06-22T06:20:21;31.50;99.90
31575;DHT22;18182;1.328;103.810;2023-06-22T06:22:47;31.50;99.90
31575;DHT22;18182;1.328;103.810;2023-06-22T06:25:13;31.60;99.90
31575;DHT22;18182;1.328;103.810;2023-06-22T06:27:43;31.60;99.90
31575;DHT22;18182;1.328;103.810;2023-06-22T06:30:10;31.60;99.90
31575;DHT22;18182;1.328;103.810;2023-06-22T06:32:36;31.60;99.90
31575;DHT22;18182;1.328;103.810;2023-06-22T06:35:04;31.60;99.90
31575;DHT22;18182;1.328;103.810;2023-06-22T06:37:31;31.60;99.90
31575;DHT22;18182;1.328;103.810;2023-06-22T06:39:58;31.60;99.90
31575;DHT22;18182;1.328;103.810;2023-06-22T06:42:24;31.60;99.90
31575;DHT22;18182;1.328;103.810;2023-06-22T06:44:50;31.50;99.90
31575;DHT22;18182;1.328;103.810;2023-06-22T06:47:17;31.50;99.90
31575;DHT22;18182;1.328;103.810;2023-06-22T06:49:43;31.50;99.90
31575;DHT22;18182;1.328;103.810;2023-06-22T06:52:09;31.50;99.90
31575;DHT22;18182;1.328;103.810;2023-06-22T06:54:35;31.50;99.90
31575;DHT22;18182;1.328;103.810;2023-06-22T06:57:03;31.50;99.90
31575;DHT22;18182;1.328;103.810;2023-06-22T06:59:29;31.60;99.90
31575;DHT22;18182;1.328;103.810;2023-06-22T07:01:55;31.70;99.90
31575;DHT22;18182;1.328;103.810;2023-06-22T07:04:21;31.70;99.90
31575;DHT22;18182;1.328;103.810;2023-06-22T07:06:48;31.70;99.90
31575;DHT22;18182;1.328;103.810;2023-06-22T07:09:14;31.70;99.90
31575;DHT22;18182;1.328;103.810;2023-06-22T07:11:40;31.70;99.90
31575;DHT22;18182;1.328;103.810;2023-06-22T07:14:06;31.70;99.90
31575;DHT22;18182;1.328;103.810;2023-06-22T07:16:32;31.80;99.90
31575;DHT22;18182;1.328;103.810;2023-06-22T07:18:58;31.90;99.90
31575;DHT22;18182;1.328;103.810;2023-06-22T07:21:25;32.00;99.90
31575;DHT22;18182;1.328;103.810;2023-06-22T07:23:52;32.10;99.90
31575;DHT22;18182;1.328;103.810;2023-06-22T07:26:18;32.10;99.90
31575;DHT22;18182;1.328;103.810;2023-06-22T07:28:44;32.10;99.90
31575;DHT22;18182;1.328;103.810;2023-06-22T07:31:10;32.20;99.90
31575;DHT22;18182;1.328;103.810;2023-06-22T07:33:36;32.10;99.90
31575;DHT22;18182;1.328;103.810;2023-06-22T07:36:02;32.20;99.90
31575;DHT22;18182;1.328;103.810;2023-06-22T07:38:33;32.10;99.90
31575;DHT22;18182;1.328;103.810;2023-06-22T07:41:00;32.10;99.90
31575;DHT22;18182;1.328;103.810;2023-06-22T07:43:29;32.10;99.90
31575;DHT22;18182;1.328;103.810;2023-06-22T07:45:55;32.10;99.90
31575;DHT22;18182;1.328;103.810;2023-06-22T07:48:21;32.10;99.90
31575;DHT22;18182;1.328;103.810;2023-06-22T07:50:48;32.10;99.90
31575;DHT22;18182;1.328;103.810;2023-06-22T07:53:14;32.10;99.90
31575;DHT22;18182;1.328;103.810;2023-06-22T07:55:41;32.10;99.90
31575;DHT22;18182;1.328;103.810;2023-06-22T07:58:07;32.10;99.90
31575;DHT22;18182;1.328;103.810;2023-06-22T08:00:33;32.10;99.90
31575;DHT22;18182;1.328;103.810;2023-06-22T08:02:59;32.10;99.90
31575;DHT22;18182;1.328;103.810;2023-06-22T08:05:29;32.10;99.90
31575;DHT22;18182;1.328;103.810;2023-06-22T08:07:55;32.10;99.90
31575;DHT22;18182;1.328;103.810;2023-06-22T08:10:21;32.10;99.90
31575;DHT22;18182;1.328;103.810;2023-06-22T08:12:48;32.10;99.90
31575;DHT22;18182;1.328;103.810;2023-06-22T08:15:14;32.10;99.90
31575;DHT22;18182;1.328;103.810;2023-06-22T08:17:40;32.10;99.90
31575;DHT22;18182;1.328;103.810;2023-06-22T08:20:07;32.10;99.90
31575;DHT22;18182;1.328;103.810;2023-06-22T08:22:37;32.10;99.90
31575;DHT22;18182;1.328;103.810;2023-06-22T08:25:04;32.00;99.90
31575;DHT22;18182;1.328;103.810;2023-06-22T08:27:30;31.90;99.90
31575;DHT22;18182;1.328;103.810;2023-06-22T08:29:59;32.00;99.90
31575;DHT22;18182;1.328;103.810;2023-06-22T08:32:29;32.00;99.90
31575;DHT22;18182;1.328;103.810;2023-06-22T08:34:56;31.90;99.90
31575;DHT22;18182;1.328;103.810;2023-06-22T08:37:22;31.90;99.90
31575;DHT22;18182;1.328;103.810;2023-06-22T08:39:59;32.00;99.90
31575;DHT22;18182;1.328;103.810;2023-06-22T08:42:31;32.00;99.90
31575;DHT22;18182;1.328;103.810;2023-06-22T08:44:57;32.10;99.90
31575;DHT22;18182;1.328;103.810;2023-06-22T08:47:24;32.20;99.90
31575;DHT22;18182;1.328;103.810;2023-06-22T08:49:50;32.10;99.90
31575;DHT22;18182;1.328;103.810;2023-06-22T08:52:17;32.20;99.90
31575;DHT22;18182;1.328;103.810;2023-06-22T08:54:44;32.20;99.90
31575;DHT22;18182;1.328;103.810;2023-06-22T08:57:10;32.20;99.90
31575;DHT22;18182;1.328;103.810;2023-06-22T08:59:36;32.20;99.90
31575;DHT22;18182;1.328;103.810;2023-06-22T09:02:02;32.10;99.90
31575;DHT22;18182;1.328;103.810;2023-06-22T09:04:28;32.10;99.90
31575;DHT22;18182;1.328;103.810;2023-06-22T09:06:55;32.20;99.90
31575;DHT22;18182;1.328;103.810;2023-06-22T09:09:21;32.10;99.90
31575;DHT22;18182;1.328;103.810;2023-06-22T09:11:47;32.20;99.90
31575;DHT22;18182;1.328;103.810;2023-06-22T09:14:14;32.20;99.90
31575;DHT22;18182;1.328;103.810;2023-06-22T09:16:40;32.20;99.90
31575;DHT22;18182;1.328;103.810;2023-06-22T09:19:06;32.20;99.90
31575;DHT22;18182;1.328;103.810;2023-06-22T09:21:32;32.10;99.90
31575;DHT22;18182;1.328;103.810;2023-06-22T09:23:58;32.10;99.90
31575;DHT22;18182;1.328;103.810;2023-06-22T09:26:24;32.10;99.90
31575;DHT22;18182;1.328;103.810;2023-06-22T09:28:51;32.10;99.90
31575;DHT22;18182;1.328;103.810;2023-06-22T09:31:17;32.00;99.90
31575;DHT22;18182;1.328;103.810;2023-06-22T09:33:47;32.00;99.90
31575;DHT22;18182;1.328;103.810;2023-06-22T09:36:13;32.00;99.90
31575;DHT22;18182;1.328;103.810;2023-06-22T09:38:39;32.00;99.90
31575;DHT22;18182;1.328;103.810;2023-06-22T09:41:06;31.90;99.90
31575;DHT22;18182;1.328;103.810;2023-06-22T09:43:32;31.90;99.90
31575;DHT22;18182;1.328;103.810;2023-06-22T09:46:01;31.90;99.90
31575;DHT22;18182;1.328;103.810;2023-06-22T09:48:28;31.90;99.90
31575;DHT22;18182;1.328;103.810;2023-06-22T09:50:55;31.80;99.90
31575;DHT22;18182;1.328;103.810;2023-06-22T09:53:21;31.80;99.90
31575;DHT22;18182;1.328;103.810;2023-06-22T09:55:47;31.80;99.90
31575;DHT22;18182;1.328;103.810;2023-06-22T09:58:13;31.80;99.90
31575;DHT22;18182;1.328;103.810;2023-06-22T10:00:39;31.90;99.90
31575;DHT22;18182;1.328;103.810;2023-06-22T10:03:07;31.90;99.90
31575;DHT22;18182;1.328;103.810;2023-06-22T10:05:33;31.90;99.90
31575;DHT22;18182;1.328;103.810;2023-06-22T10:07:59;31.90;99.90
31575;DHT22;18182;1.328;103.810;2023-06-22T10:10:25;31.80;99.90
31575;DHT22;18182;1.328;103.810;2023-06-22T10:12:55;31.80;99.90
31575;DHT22;18182;1.328;103.810;2023-06-22T10:15:23;31.80;99.90
31575;DHT22;18182;1.328;103.810;2023-06-22T10:17:49;31.80;99.90
31575;DHT22;18182;1.328;103.810;2023-06-22T10:20:15;31.70;99.90
31575;DHT22;18182;1.328;103.810;2023-06-22T10:22:44;31.70;99.90
31575;DHT22;18182;1.328;103.810;2023-06-22T10:25:11;31.70;99.90
31575;DHT22;18182;1.328;103.810;2023-06-22T10:27:37;31.60;99.90
31575;DHT22;18182;1.328;103.810;2023-06-22T10:30:07;31.50;99.90
31575;DHT22;18182;1.328;103.810;2023-06-22T10:32:33;31.50;99.90
31575;DHT22;18182;1.328;103.810;2023-06-22T10:35:00;31.50;99.90
31575;DHT22;18182;1.328;103.810;2023-06-22T10:37:26;31.60;99.90
31575;DHT22;18182;1.328;103.810;2023-06-22T10:39:52;31.50;99.90
31575;DHT22;18182;1.328;103.810;2023-06-22T10:42:18;31.50;99.90
31575;DHT22;18182;1.328;103.810;2023-06-22T10:44:44;31.50;99.90
31575;DHT22;18182;1.328;103.810;2023-06-22T10:47:10;31.50;99.90
31575;DHT22;18182;1.328;103.810;2023-06-22T10:49:38;31.50;99.90
31575;DHT22;18182;1.328;103.810;2023-06-22T10:52:05;31.50;99.90
31575;DHT22;18182;1.328;103.810;2023-06-22T10:54:32;31.50;99.90
31575;DHT22;18182;1.328;103.810;2023-06-22T10:56:59;31.50;99.90
31575;DHT22;18182;1.328;103.810;2023-06-22T10:59:27;31.50;99.90
31575;DHT22;18182;1.328;103.810;2023-06-22T11:01:55;31.50;99.90
31575;DHT22;18182;1.328;103.810;2023-06-22T11:04:21;31.50;99.90
31575;DHT22;18182;1.328;103.810;2023-06-22T11:06:47;31.40;99.90
31575;DHT22;18182;1.328;103.810;2023-06-22T11:09:14;31.40;99.90
31575;DHT22;18182;1.328;103.810;2023-06-22T11:11:44;31.40;99.90
31575;DHT22;18182;1.328;103.810;2023-06-22T11:14:10;31.40;99.90
31575;DHT22;18182;1.328;103.810;2023-06-22T11:16:37;31.40;99.90
31575;DHT22;18182;1.328;103.810;2023-06-22T11:19:04;31.40;99.90
31575;DHT22;18182;1.328;103.810;2023-06-22T11:21:31;31.30;99.90
31575;DHT22;18182;1.328;103.810;2023-06-22T11:23:58;31.30;99.90
31575;DHT22;18182;1.328;103.810;2023-06-22T11:26:24;31.20;99.90
31575;DHT22;18182;1.328;103.810;2023-06-22T11:28:53;31.20;99.90
31575;DHT22;18182;1.328;103.810;2023-06-22T11:31:19;31.10;99.90
31575;DHT22;18182;1.328;103.810;2023-06-22T11:33:45;31.00;99.90
31575;DHT22;18182;1.328;103.810;2023-06-22T11:36:12;31.00;99.90
31575;DHT22;18182;1.328;103.810;2023-06-22T11:38:38;31.00;99.90
31575;DHT22;18182;1.328;103.810;2023-06-22T11:41:08;31.00;99.90
31575;DHT22;18182;1.328;103.810;2023-06-22T11:43:34;31.00;99.90
31575;DHT22;18182;1.328;103.810;2023-06-22T11:46:01;31.00;99.90
31575;DHT22;18182;1.328;103.810;2023-06-22T11:48:28;31.00;99.90
31575;DHT22;18182;1.328;103.810;2023-06-22T11:50:55;31.00;99.90
31575;DHT22;18182;1.328;103.810;2023-06-22T11:53:22;30.90;99.90
31575;DHT22;18182;1.328;103.810;2023-06-22T11:55:48;30.90;99.90
31575;DHT22;18182;1.328;103.810;2023-06-22T11:58:14;30.90;99.90
31575;DHT22;18182;1.328;103.810;2023-06-22T12:00:40;30.90;99.90
31575;DHT22;18182;1.328;103.810;2023-06-22T12:03:07;30.90;99.90
31575;DHT22;18182;1.328;103.810;2023-06-22T12:05:34;30.80;99.90
31575;DHT22;18182;1.328;103.810;2023-06-22T12:08:01;30.80;99.90
31575;DHT22;18182;1.328;103.810;2023-06-22T12:10:27;30.80;99.90
31575;DHT22;18182;1.328;103.810;2023-06-22T12:12:56;30.80;99.90
31575;DHT22;18182;1.328;103.810;2023-06-22T12:15:23;30.70;99.90
31575;DHT22;18182;1.328;103.810;2023-06-22T12:17:49;30.70;99.90
31575;DHT22;18182;1.328;103.810;2023-06-22T12:20:15;30.70;99.90
31575;DHT22;18182;1.328;103.810;2023-06-22T12:22:41;30.70;99.90
31575;DHT22;18182;1.328;103.810;2023-06-22T12:25:08;30.70;99.90
31575;DHT22;18182;1.328;103.810;2023-06-22T12:27:34;30.60;99.90
31575;DHT22;18182;1.328;103.810;2023-06-22T12:30:01;30.60;99.90
31575;DHT22;18182;1.328;103.810;2023-06-22T12:32:27;30.70;99.90
31575;DHT22;18182;1.328;103.810;2023-06-22T12:34:53;30.60;99.90
31575;DHT22;18182;1.328;103.810;2023-06-22T12:37:19;30.70;99.90
31575;DHT22;18182;1.328;103.810;2023-06-22T12:39:46;30.70;99.90
31575;DHT22;18182;1.328;103.810;2023-06-22T12:42:12;30.70;99.90
31575;DHT22;18182;1.328;103.810;2023-06-22T12:44:39;30.60;99.90
31575;DHT22;18182;1.328;103.810;2023-06-22T12:47:05;30.70;99.90
31575;DHT22;18182;1.328;103.810;2023-06-22T12:49:31;30.70;99.90
31575;DHT22;18182;1.328;103.810;2023-06-22T12:51:58;30.70;99.90
31575;DHT22;18182;1.328;103.810;2023-06-22T12:54:24;30.70;99.90
31575;DHT22;18182;1.328;103.810;2023-06-22T12:56:50;30.70;99.90
31575;DHT22;18182;1.328;103.810;2023-06-22T12:59:16;30.70;99.90
31575;DHT22;18182;1.328;103.810;2023-06-22T13:01:43;30.80;99.90
31575;DHT22;18182;1.328;103.810;2023-06-22T13:04:14;30.80;99.90
31575;DHT22;18182;1.328;103.810;2023-06-22T13:06:41;30.80;99.90
31575;DHT22;18182;1.328;103.810;2023-06-22T13:09:09;30.80;99.90
31575;DHT22;18182;1.328;103.810;2023-06-22T13:11:35;30.80;99.90
31575;DHT22;18182;1.328;103.810;2023-06-22T13:14:01;30.80;99.90
31575;DHT22;18182;1.328;103.810;2023-06-22T13:16:27;30.80;99.90
31575;DHT22;18182;1.328;103.810;2023-06-22T13:18:54;30.70;99.90
31575;DHT22;18182;1.328;103.810;2023-06-22T13:21:20;30.70;99.90
31575;DHT22;18182;1.328;103.810;2023-06-22T13:23:46;30.70;99.90
31575;DHT22;18182;1.328;103.810;2023-06-22T13:26:12;30.70;99.90
31575;DHT22;18182;1.328;103.810;2023-06-22T13:28:38;30.70;99.90
31575;DHT22;18182;1.328;103.810;2023-06-22T13:31:04;30.70;99.90
31575;DHT22;18182;1.328;103.810;2023-06-22T13:33:31;30.60;99.90
31575;DHT22;18182;1.328;103.810;2023-06-22T13:35:57;30.70;99.90
31575;DHT22;18182;1.328;103.810;2023-06-22T13:38:23;30.60;99.90
31575;DHT22;18182;1.328;103.810;2023-06-22T13:40:49;30.60;99.90
31575;DHT22;18182;1.328;103.810;2023-06-22T13:43:16;30.70;99.90
31575;DHT22;18182;1.328;103.810;2023-06-22T13:45:42;30.60;99.90
31575;DHT22;18182;1.328;103.810;2023-06-22T13:48:09;30.70;99.90
31575;DHT22;18182;1.328;103.810;2023-06-22T13:50:35;30.70;99.90
31575;DHT22;18182;1.328;103.810;2023-06-22T13:53:01;30.70;99.90
31575;DHT22;18182;1.328;103.810;2023-06-22T13:55:27;30.70;99.90
31575;DHT22;18182;1.328;103.810;2023-06-22T13:57:54;30.70;99.90
31575;DHT22;18182;1.328;103.810;2023-06-22T14:00:20;30.70;99.90
31575;DHT22;18182;1.328;103.810;2023-06-22T14:02:47;30.70;99.90
31575;DHT22;18182;1.328;103.810;2023-06-22T14:05:14;30.70;99.90
31575;DHT22;18182;1.328;103.810;2023-06-22T14:07:40;30.70;99.90
31575;DHT22;18182;1.328;103.810;2023-06-22T14:10:06;30.70;99.90
31575;DHT22;18182;1.328;103.810;2023-06-22T14:12:32;30.60;99.90
31575;DHT22;18182;1.328;103.810;2023-06-22T14:14:59;30.60;99.90
31575;DHT22;18182;1.328;103.810;2023-06-22T14:17:25;30.60;99.90
31575;DHT22;18182;1.328;103.810;2023-06-22T14:19:53;30.60;99.90
31575;DHT22;18182;1.328;103.810;2023-06-22T14:22:20;30.60;99.90
31575;DHT22;18182;1.328;103.810;2023-06-22T14:24:46;30.60;99.90
31575;DHT22;18182;1.328;103.810;2023-06-22T14:27:13;30.50;99.90
31575;DHT22;18182;1.328;103.810;2023-06-22T14:29:39;30.50;99.90
31575;DHT22;18182;1.328;103.810;2023-06-22T14:32:05;30.50;99.90
31575;DHT22;18182;1.328;103.810;2023-06-22T14:34:32;30.50;99.90
31575;DHT22;18182;1.328;103.810;2023-06-22T14:36:58;30.50;99.90
31575;DHT22;18182;1.328;103.810;2023-06-22T14:39:24;30.50;99.90
31575;DHT22;18182;1.328;103.810;2023-06-22T14:41:50;30.60;99.90
31575;DHT22;18182;1.328;103.810;2023-06-22T14:44:16;30.60;99.90
31575;DHT22;18182;1.328;103.810;2023-06-22T14:46:43;30.60;99.90
31575;DHT22;18182;1.328;103.810;2023-06-22T14:49:09;30.60;99.90
31575;DHT22;18182;1.328;103.810;2023-06-22T14:51:35;30.60;99.90
31575;DHT22;18182;1.328;103.810;2023-06-22T14:54:01;30.60;99.90
31575;DHT22;18182;1.328;103.810;2023-06-22T14:56:27;30.60;99.90
31575;DHT22;18182;1.328;103.810;2023-06-22T14:58:53;30.60;99.90
31575;DHT22;18182;1.328;103.810;2023-06-22T15:01:19;30.60;99.90
31575;DHT22;18182;1.328;103.810;2023-06-22T15:03:46;30.60;99.90
31575;DHT22;18182;1.328;103.810;2023-06-22T15:06:12;30.60;99.90
31575;DHT22;18182;1.328;103.810;2023-06-22T15:08:39;30.60;99.90
31575;DHT22;18182;1.328;103.810;2023-06-22T15:11:05;30.50;99.90
31575;DHT22;18182;1.328;103.810;2023-06-22T15:13:31;30.60;99.90